Tiempo atmosférico en la estación meteorológica de El Paso, Santa Cruz de Tenerife (844 m.)



Fecha
DESCASC
Temp. máxima en grados centígrados (hora)
DESCASC
Temp. mínima en grados centígrados (hora)
DESCASC
Temp. media en grados centígrados
DESCASC
Racha de viento máxima en m/sg (hora)
DESCASC
Velocidad máxima media en intervalos de 10 minutos(hora)
DESCASC
Precipitaciones diarias en mm
DESCASC
Precipitaciones de 00:00 a 06:00 en mm
DESCASC
Precipitaciones de 06:00 a 12:00 en mm
DESCASC
Precipitaciones de 12:00 a 18:00 en mm
DESCASC
Precipitaciones de 18:00 a 24:00 en mm
DESCASC
13-06-2019 16.3 (13:00) 12.9 (22:20) 14.6 8.61 (12:20) 5.56 (12:10) 0.6 0 0 0.2 0.4
12-06-2019 19.1 (12:40) 12.5 (07:20) 15.8 15.56 (02:30) 9.17 (02:30) 0.6 0 0 0.4 0.2
11-06-2019 21.4 (15:30) 13.3 (06:50) 17.3 16.67 (06:10) 10.83 (06:20) 0 0 0 0 0
10-06-2019 19.7 (14:00) 11.5 (03:30) 15.6 16.11 (09:30) 8.33 (16:20) 0 0 0 0 0
09-06-2019 19.5 (18:30) 11.4 (00:00) 15.4 15.56 (14:30) 8.89 (12:10) 0 0 0 0 0
08-06-2019 17.5 (10:20) 11.8 (00:00) 14.7 12.5 (19:30) 6.67 (20:30) 0.2 0 0.2 0 0
07-06-2019 19 (13:10) 8.7 (00:00) 13.8 11.67 (12:30) 6.94 (12:20) 0 0 0 0 0
06-06-2019 16.5 (17:00) 11.3 (00:00) 13.9 13.06 (15:30) 7.22 (10:00) 0 0 0 0 0
05-06-2019 18.5 (11:00) 12.7 (00:00) 15.6 12.5 (20:50) 7.22 (22:30) 0 0 0 0 0
04-06-2019 27 (10:10) 16.8 (00:00) 21.9 11.11 (01:20) 6.39 (01:30) 0 0 0 0 0
03-06-2019 32 (14:30) 21.9 (00:00) 26.9 19.72 (01:40) 11.94 (03:20) 0 0 0 0 0
02-06-2019 31.5 (15:10) 18.5 (00:00) 25 18.61 (01:40) 9.72 (22:50) 0.2 0 0.2 0 0
01-06-2019 28.9 (15:10) 18.7 (00:00) 23.8 16.39 (02:30) 8.33 (04:30) 0 0 0 0 0
31-05-2019 24.5 (15:00) 12.3 (00:00) 18.4 6.94 (16:30) 4.17 (16:20) 0 0 0 0 0
30-05-2019 22.4 (16:40) 10.3 (00:00) 16.3 6.39 (15:10) 3.61 (15:00) 0 0 0 0 0
29-05-2019 22.5 (15:40) 12 (00:00) 17.3 6.11 (14:00) 3.89 (12:40) 0 0 0 0 0
28-05-2019 26.9 (13:00) 15.4 (00:00) 21.1 14.17 (07:30) 7.22 (04:40) 0 0 0 0 0
27-05-2019 24.8 (14:30) 18.6 (00:00) 21.7 15.28 (00:20) 8.61 (12:10) 0 0 0 0 0
26-05-2019 22.1 (13:30) 12 (00:00) 17.1 16.39 (06:30) 8.33 (07:00) 0 0 0 0 0
25-05-2019 25.1 (16:10) 14.5 (00:00) 19.8 14.44 (01:30) 8.61 (01:30) 0 0 0 0 0
24-05-2019 25.4 (17:10) 17.3 (00:00) 21.3 16.94 (04:00) 10.28 (00:20) 0 0 0 0 0
23-05-2019 19.7 (15:40) 13.3 (00:00) 16.5 20.28 (16:30) 11.39 (00:50) 0 0 0 0 0
22-05-2019 20 (16:50) 11.1 (00:00) 15.6 13.61 (23:50) 7.78 (23:50) 0 0 0 0 0
21-05-2019 19.1 (15:10) 9.5 (05:50) 14.3 11.11 (14:40) 7.22 (13:20) 0 0 0 0 0
20-05-2019 18.7 (14:30) 10.3 (07:40) 14.5 14.17 (12:20) 8.06 (12:30) 0 0 0 0 0
19-05-2019 21.9 (14:00) 10.1 (00:00) 16 14.72 (16:50) 8.89 (16:00) 0 0 0 0 0
18-05-2019 19.5 (16:20) 12.1 (00:00) 15.8 14.72 (11:30) 9.44 (15:10) 0 0 0 0 0
17-05-2019 23.1 (11:30) 10.7 (00:00) 16.9 11.94 (14:50) 7.5 (14:50) 0 0 0 0 0

Gráficas

Temp. máximas Temp. mínimas Temp. medias Precipitaciones Rachas de viento máximas Velocidades máximas media en intervalos de 10 minutos

Datos horarios

Fecha y hora oficial Temperatura (ºC) Velocidad del viento (km/h) Dirección del viento Racha (km/h) Dirección de racha Precipitación (mm) Presión (hPa) Tendencia (hPa) Humedad (%)
2019-06-15 23:00:00 13.9 0 Calma 9 Oeste 0 -- -- 88
2019-06-15 22:00:00 14.6 6 Oeste 12 Oeste 0 -- -- 84
2019-06-15 21:00:00 15 9 Oeste 17 Oeste 0 -- -- 78
2019-06-15 20:00:00 15.5 9 Oeste 19 Oeste 0 -- -- 69
2019-06-15 19:00:00 16.4 6 Oeste 19 Oeste 0 -- -- 71
2019-06-15 18:00:00 16.3 12 Oeste 21 Oeste 0 -- -- 71
2019-06-15 17:00:00 16.3 5 Noroeste 19 Oeste 0 -- -- 72
2019-06-15 16:00:00 15.5 8 Noroeste 14 Oeste 0 -- -- 76
2019-06-15 15:00:00 14.9 10 Oeste 18 Oeste 0 -- -- 79
2019-06-15 14:00:00 15.1 7 Oeste 16 Oeste 0 -- -- 81
2019-06-15 13:00:00 15.7 10 Oeste 17 Oeste 0 -- -- 80
2019-06-15 12:00:00 16.5 9 Oeste 31 Oeste 0 -- -- 74
2019-06-15 11:00:00 16.5 12 Este 26 Este 0 -- -- 68
2019-06-15 10:00:00 15.3 9 Sudeste 20 Este 0 -- -- 74
2019-06-15 09:00:00 12.8 6 Sudeste 17 Este 0 -- -- 84
2019-06-15 08:00:00 9.7 5 Este 10 Este 0 -- -- 85
2019-06-15 07:00:00 9.4 3 Este 9 Este 0 -- -- 86
2019-06-15 06:00:00 9.5 6 Este 10 Nordeste 0 -- -- 85
2019-06-15 05:00:00 10.8 3 Este 20 Este 0 -- -- 82
2019-06-15 04:00:00 10.9 5 Este 12 Este 0 -- -- 83
2019-06-15 03:00:00 11.6 6 Este 18 Sudeste 0 -- -- 83
2019-06-15 02:00:00 11.6 7 Este 15 Sudeste 0 -- -- 82
2019-06-15 01:00:00 12.3 9 Sudeste 16 Este 0 -- -- 79
2019-06-15 00:00:00 12.4 9 Sudeste 19 Sudeste 0 -- -- 74
2019-06-14 23:00:00 12.6 8 Este 15 Sudeste 0 -- -- 73
2019-06-14 22:00:00 13.3 6 Sudeste 11 Sudeste 0 -- -- 74
2019-06-14 21:00:00 14.5 3 Sudeste 12 Oeste 0 -- -- 76
2019-06-14 20:00:00 15 7 Oeste 14 Sudeste 0 -- -- 76
2019-06-14 19:00:00 14.4 12 Este 22 Este 0 -- -- 72
2019-06-14 18:00:00 14.4 6 Este 18 Este 0 -- -- 76
2019-06-14 17:00:00 14.4 8 Este 17 Sudeste 0 -- -- 79
2019-06-14 16:00:00 15.5 7 Oeste 15 Oeste 0 -- -- 77
2019-06-14 15:00:00 15.4 8 Oeste 13 Noroeste 0 -- -- 77
2019-06-14 14:00:00 15.6 9 Oeste 18 Oeste 0 -- -- 76
2019-06-14 13:00:00 16.5 7 Oeste 17 Este 0 -- -- 72
2019-06-14 12:00:00 15.5 11 Este 23 Sudoeste 0 -- -- 66
2019-06-14 11:00:00 15.4 3 Este 13 Este 0 -- -- 74
2019-06-14 10:00:00 15.5 6 Este 15 Nordeste 0 -- -- 63
2019-06-14 09:00:00 13.6 0 Calma 9 Este 0 -- -- 77
2019-06-14 08:00:00 12.6 6 Este 16 Sudeste 0.2 -- -- 71
2019-06-14 07:00:00 12.3 8 Este 14 Este 0 -- -- 73
2019-06-14 06:00:00 12.3 8 Sudeste 15 Sudeste 0 -- -- 77
2019-06-14 05:00:00 12.4 5 Sudeste 14 Sudeste 0 -- -- 78
2019-06-14 04:00:00 12.6 9 Sudeste 16 Sudeste 0 -- -- 78
2019-06-14 03:00:00 12.8 10 Este 19 Este 0 -- -- 76
2019-06-14 02:00:00 12.8 8 Sudeste 22 Este 0 -- -- 82
2019-06-14 01:00:00 12.8 10 Sudeste 27 Este 0 -- -- 82
2019-06-14 00:00:00 13 11 Sudeste 26 Este 0 -- -- 83
2019-06-13 23:00:00 13 17 Este 28 Sudeste 0 -- -- 85
2019-06-13 22:00:00 13.1 12 Este 26 Sudeste 0 -- -- 88
2019-06-13 21:00:00 13.4 7 Sudeste 20 Este 0 -- -- 89
2019-06-13 20:00:00 13.6 13 Este 21 Sudeste 0 -- -- 87
2019-06-13 19:00:00 14.1 5 Oeste 10 Oeste 0.4 -- -- 88
2019-06-13 18:00:00 14.3 7 Oeste 12 Oeste 0 -- -- 87
2019-06-13 17:00:00 14.6 5 Oeste 14 Oeste 0.2 -- -- 86
2019-06-13 16:00:00 15.2 7 Oeste 14 Oeste 0 -- -- 83
2019-06-13 15:00:00 15.4 8 Oeste 18 Oeste 0 -- -- 80
2019-06-13 14:00:00 16 8 Oeste 26 Este 0 -- -- 75
2019-06-13 13:00:00 16.3 16 Este 31 Este 0 -- -- 74
2019-06-13 12:00:00 14.5 19 Este 28 Este 0 -- -- 82
2019-06-13 11:00:00 14.3 8 Sudeste 13 Sudeste 0 -- -- 80
2019-06-13 10:00:00 14.3 4 Sudeste 19 Este 0 -- -- 75
2019-06-13 09:00:00 13.6 13 Este 22 Este 0 -- -- 76
2019-06-13 08:00:00 13.2 6 Sudeste 12 Sudeste 0 -- -- 78
2019-06-13 07:00:00 13.1 4 Sur 16 Sudeste 0 -- -- 85
2019-06-13 06:00:00 13 7 Sudeste 21 Sudeste 0 -- -- 86
2019-06-13 05:00:00 13.3 5 Este 17 Este 0 -- -- 78
2019-06-13 04:00:00 13 12 Sudeste 22 Sudeste 0 -- -- 78
2019-06-13 03:00:00 13.1 9 Sudeste 20 Sudeste 0 -- -- 82
2019-06-13 02:00:00 13.2 16 Sudeste 23 Sudeste 0 -- -- 85
2019-06-13 01:00:00 13.4 12 Sudeste 23 Sudeste 0 -- -- 87
2019-06-13 00:00:00 14 5 Este 26 Sudeste 0 -- -- 86
2019-06-12 23:00:00 13.6 14 Sudeste 29 Este 0 -- -- 88
2019-06-12 22:00:00 14 15 Sudeste 26 Sudeste 0 -- -- 88
2019-06-12 21:00:00 14.9 13 Sudeste 21 Sudeste 0 -- -- 89
2019-06-12 20:00:00 16.3 3 Sudoeste 6 Oeste 0.2 -- -- 89
2019-06-12 19:00:00 15.9 6 Este 13 Este 0 -- -- 84
2019-06-12 18:00:00 15.8 4 Nordeste 20 Este 0 -- -- 84
2019-06-12 17:00:00 15.7 11 Este 21 Sudeste 0.4 -- -- 84
2019-06-12 16:00:00 17.2 6 Oeste 15 Oeste 0 -- -- 83
2019-06-12 15:00:00 17.1 12 Este 35 Este 0 -- -- 78
2019-06-12 14:00:00 17.6 18 Este 30 Sudeste 0 -- -- 75
2019-06-12 13:00:00 18.8 15 Sudeste 34 Sudeste 0 -- -- 69
2019-06-12 12:00:00 17.7 18 Este 35 Este 0 -- -- 71
2019-06-12 11:00:00 17.5 7 Oeste 35 Este 0 -- -- 82
2019-06-12 10:00:00 16.6 14 Este 27 Este 0 -- -- 80
2019-06-12 09:00:00 16.4 6 Sur 17 Sudeste 0 -- -- 80
2019-06-12 08:00:00 14.1 9 Sudoeste 22 Sudoeste 0 -- -- 90
2019-06-12 07:00:00 12.7 3 Sudeste 10 Nordeste 0 -- -- 90
2019-06-12 06:00:00 12.9 0 Calma 9 Este 0 -- -- 89
2019-06-12 05:00:00 13.6 3 Este 10 Nordeste 0 -- -- 89
2019-06-12 04:00:00 14.3 5 Nordeste 44 Este 0 -- -- 90
2019-06-12 03:00:00 15.1 22 Este 56 Este 0 -- -- 77
2019-06-12 02:00:00 14 10 Nordeste 26 Este 0 -- -- 88
2019-06-12 01:00:00 14.9 5 Noroeste 17 Sudoeste 0 -- -- 89
2019-06-12 00:00:00 15.5 12 Sudeste 31 Sudeste 0 -- -- 76
2019-06-11 23:00:00 15.9 3 Noroeste 10 Oeste 0 -- -- 86
2019-06-11 22:00:00 16.2 5 Oeste 27 Este 0 -- -- 84
2019-06-11 21:00:00 16.9 15 Este 40 Este 0 -- -- 71
2019-06-11 20:00:00 18.7 6 Oeste 18 Oeste 0 -- -- 78
2019-06-11 19:00:00 19.5 9 Oeste 25 Este 0 -- -- 76
2019-06-11 18:00:00 19.9 15 Este 38 Este 0 -- -- 67
2019-06-11 17:00:00 20.5 14 Sudeste 30 Sudeste 0 -- -- 65
2019-06-11 16:00:00 20.8 18 Sudeste 36 Este 0 -- -- 65
2019-06-11 15:00:00 20.9 21 Este 38 Este 0 -- -- 65
2019-06-11 14:00:00 20.7 15 Este 36 Este 0 -- -- 65
2019-06-11 13:00:00 20.9 14 Este 34 Sudeste 0 -- -- 60
2019-06-11 12:00:00 19.5 18 Sudeste 39 Este 0 -- -- 67
2019-06-11 11:00:00 17.7 25 Este 47 Este 0 -- -- 74
2019-06-11 10:00:00 17.2 25 Este 57 Este 0 -- -- 74
2019-06-11 09:00:00 15.1 31 Este 52 Este 0 -- -- 80
2019-06-11 08:00:00 13.6 31 Este 60 Este 0 -- -- 85
2019-06-11 07:00:00 13.3 36 Este 60 Este 0 -- -- 82
2019-06-11 06:00:00 14.4 35 Este 57 Este 0 -- -- 66
2019-06-11 05:00:00 14.6 26 Sudeste 50 Este 0 -- -- 64
2019-06-11 04:00:00 14.9 23 Este 39 Este 0 -- -- 61
2019-06-11 03:00:00 14 5 Noroeste 35 Sudeste 0 -- -- 83
2019-06-11 02:00:00 14.5 7 Sudeste 45 Este 0 -- -- 79
2019-06-11 01:00:00 14.5 9 Este 32 Este 0 -- -- 74
2019-06-11 00:00:00 14.4 6 Este 42 Este 0 -- -- 81
2019-06-10 23:00:00 14.2 12 Este 35 Este 0 -- -- 78
2019-06-10 22:00:00 14.1 18 Este 38 Este 0 -- -- 76
2019-06-10 21:00:00 14.4 18 Este 54 Este 0 -- -- 79
2019-06-10 20:00:00 15.2 29 Este 51 Este 0 -- -- 78
2019-06-10 19:00:00 16.5 25 Este 50 Sudeste 0 -- -- 76
2019-06-10 18:00:00 18.2 26 Este 42 Este 0 -- -- 69
2019-06-10 17:00:00 18.9 25 Este 45 Este 0 -- -- 65
2019-06-10 16:00:00 18.4 28 Sudeste 44 Este 0 -- -- 73
2019-06-10 15:00:00 19.3 29 Sudeste 49 Este 0 -- -- 65
2019-06-10 14:00:00 19.7 27 Este 44 Este 0 -- -- 61
2019-06-10 13:00:00 19.3 27 Este 41 Este 0 -- -- 61
2019-06-10 12:00:00 18.7 25 Este 46 Este 0 -- -- 63
2019-06-10 11:00:00 17.1 28 Este 49 Sudeste 0 -- -- 66
2019-06-10 10:00:00 16.3 21 Este 58 Este 0 -- -- 65
2019-06-10 09:00:00 15.5 21 Este 37 Sudeste 0 -- -- 68
2019-06-10 08:00:00 13.4 17 Este 39 Este 0 -- -- 71
2019-06-10 07:00:00 13.5 23 Este 36 Este 0 -- -- 74
2019-06-10 06:00:00 13.6 9 Este 35 Sudeste 0 -- -- 56
2019-06-10 05:00:00 13.3 19 Sudeste 34 Sudeste 0 -- -- 74
2019-06-10 04:00:00 13 5 Este 12 Nordeste 0 -- -- 62
2019-06-10 03:00:00 12 4 Noroeste 14 Oeste 0 -- -- 87
2019-06-10 02:00:00 13.4 3 Norte 23 Oeste 0 -- -- 82
2019-06-10 01:00:00 14.6 10 Oeste 23 Este 0 -- -- 78
2019-06-10 00:00:00 13.5 4 Nordeste 16 Este 0 -- -- 78
2019-06-09 23:00:00 15.7 7 Oeste 35 Este 0 -- -- 74
2019-06-09 22:00:00 15.1 3 Noroeste 20 Este 0 -- -- 82
2019-06-09 21:00:00 16.8 6 Noroeste 14 Noroeste 0 -- -- 78
2019-06-09 20:00:00 18.2 10 Oeste 22 Oeste 0 -- -- 73
2019-06-09 19:00:00 18.7 13 Oeste 39 Sudeste 0 -- -- 69
2019-06-09 18:00:00 19 24 Sudeste 53 Este 0 -- -- 59
2019-06-09 17:00:00 17.5 28 Sudeste 51 Sudeste 0 -- -- 73
2019-06-09 16:00:00 18.2 27 Sudeste 46 Sudeste 0 -- -- 67
2019-06-09 15:00:00 18.7 27 Este 56 Este 0 -- -- 67
2019-06-09 14:00:00 18.5 26 Este 53 Este 0 -- -- 62
2019-06-09 13:00:00 16.9 28 Este 50 Este 0 -- -- 68
2019-06-09 12:00:00 16 31 Este 53 Este 0 -- -- 70
2019-06-09 11:00:00 16.2 22 Este 41 Este 0 -- -- 69
2019-06-09 10:00:00 15.1 16 Este 37 Este 0 -- -- 71
2019-06-09 09:00:00 13.9 4 Este 27 Este 0 -- -- 75
2019-06-09 08:00:00 11.6 11 Este 40 Este 0 -- -- 82
2019-06-09 07:00:00 11.9 15 Este 38 Este 0 -- -- 80
2019-06-09 06:00:00 12.2 12 Este 36 Este 0 -- -- 82
2019-06-09 05:00:00 11.6 15 Este 33 Este 0 -- -- 79
2019-06-09 04:00:00 12.4 16 Este 43 Este 0 -- -- 77
2019-06-09 03:00:00 12.3 19 Este 37 Nordeste 0 -- -- 75
2019-06-09 02:00:00 12.2 16 Este 38 Nordeste 0 -- -- 76
2019-06-09 01:00:00 12.4 18 Este 39 Este 0 -- -- 72
2019-06-09 00:00:00 12.2 19 Este 36 Este 0 -- -- 72
2019-06-08 23:00:00 12.3 12 Este 39 Este 0 -- -- 72
2019-06-08 22:00:00 12.6 22 Este 38 Sudeste 0 -- -- 72
2019-06-08 21:00:00 13.2 21 Este 40 Este 0 -- -- 77
2019-06-08 20:00:00 14.3 20 Este 45 Este 0 -- -- 72
2019-06-08 19:00:00 14.3 21 Este 38 Este 0 -- -- 74
2019-06-08 18:00:00 14.4 18 Este 35 Este 0 -- -- 79
2019-06-08 17:00:00 14.7 18 Este 30 Este 0 -- -- 79
2019-06-08 16:00:00 15.8 13 Sudeste 22 Este 0 -- -- 76
2019-06-08 15:00:00 16 14 Sudeste 27 Sudeste 0 -- -- 75
2019-06-08 14:00:00 16 18 Este 33 Este 0 -- -- 77
2019-06-08 13:00:00 15.9 19 Este 35 Este 0 -- -- 78
2019-06-08 12:00:00 16.2 20 Este 38 Este 0 -- -- 76
2019-06-08 11:00:00 16.4 21 Este 36 Este 0.2 -- -- 78
2019-06-08 10:00:00 16.5 15 Este 31 Este 0 -- -- 82
2019-06-08 09:00:00 14.5 8 Este 31 Este 0 -- -- 86
2019-06-08 08:00:00 13.8 15 Este 33 Este 0 -- -- 88
2019-06-08 07:00:00 14 8 Nordeste 24 Este 0 -- -- 90
2019-06-08 06:00:00 13.9 3 Oeste 35 Nordeste 0 -- -- 88
2019-06-08 05:00:00 13 5 Nordeste 15 Sudeste 0 -- -- 93
2019-06-08 04:00:00 12 3 Este 8 Nordeste 0 -- -- 89
2019-06-08 03:00:00 12.3 3 Este 5 Este 0 -- -- 87
2019-06-08 02:00:00 12.9 3 Este 9 Nordeste 0 -- -- 86
2019-06-08 01:00:00 13.4 4 Este 10 Este 0 -- -- 87
2019-06-08 00:00:00 13.6 0 Calma 6 Oeste 0 -- -- 85
2019-06-07 23:00:00 14.1 2 Norte 6 Oeste 0 -- -- 84
2019-06-07 22:00:00 14.5 0 Calma 8 Norte 0 -- -- 82
2019-06-07 21:00:00 15.6 3 Oeste 18 Sudoeste 0 -- -- 78
2019-06-07 20:00:00 16.9 9 Sudeste 19 Sudeste 0 -- -- 70
2019-06-07 19:00:00 17.1 7 Sudeste 32 Sudeste 0 -- -- 71
2019-06-07 18:00:00 17.5 11 Sudeste 23 Sudeste 0 -- -- 66
2019-06-07 17:00:00 18 13 Este 35 Este 0 -- -- 67
2019-06-07 16:00:00 17.4 17 Sudeste 33 Sudeste 0 -- -- 69
2019-06-07 15:00:00 17.7 10 Este 31 Este 0 -- -- 71
2019-06-07 14:00:00 18.1 17 Este 30 Este 0 -- -- 68
2019-06-07 13:00:00 18.9 9 Este 42 Este 0 -- -- 65
2019-06-07 12:00:00 17 20 Este 41 Este 0 -- -- 71
2019-06-07 11:00:00 16.2 17 Sudeste 36 Este 0 -- -- 75
2019-06-07 10:00:00 15.6 17 Sudeste 31 Sudeste 0 -- -- 74
2019-06-07 09:00:00 12.3 2 Nordeste 9 Nordeste 0 -- -- 85
2019-06-07 08:00:00 9.5 4 Este 9 Este 0 -- -- 90
2019-06-07 07:00:00 9 5 Este 9 Este 0 -- -- 90
2019-06-07 06:00:00 9 4 Este 8 Este 0 -- -- 90
2019-06-07 05:00:00 9.4 4 Este 9 Este 0 -- -- 88
2019-06-07 04:00:00 9.2 5 Este 9 Este 0 -- -- 86
2019-06-07 03:00:00 9.5 2 Este 7 Este 0 -- -- 83
2019-06-07 02:00:00 10.6 4 Este 13 Sudeste 0 -- -- 84
2019-06-07 01:00:00 11.3 5 Nordeste 14 Sudeste 0 -- -- 81
2019-06-07 00:00:00 11.3 5 Sudeste 10 Sur 0 -- -- 76
2019-06-06 23:00:00 12.4 6 Sudeste 19 Este 0 -- -- 75
2019-06-06 22:00:00 13 4 Sudeste 26 Sudeste 0 -- -- 77
2019-06-06 21:00:00 13.8 13 Sudeste 30 Sudeste 0 -- -- 76
2019-06-06 20:00:00 14.7 12 Este 28 Este 0 -- -- 74
2019-06-06 19:00:00 15.4 11 Sudeste 24 Este 0 -- -- 75
2019-06-06 18:00:00 16.2 14 Este 27 Este 0 -- -- 70
2019-06-06 17:00:00 16.5 15 Este 35 Este 0 -- -- 69
2019-06-06 16:00:00 15.6 19 Este 47 Sudeste 0 -- -- 73
2019-06-06 15:00:00 15.6 18 Este 37 Este 0 -- -- 76
2019-06-06 14:00:00 15.9 20 Este 39 Este 0 -- -- 69
2019-06-06 13:00:00 15.5 22 Este 40 Este 0 -- -- 73
2019-06-06 12:00:00 14.6 20 Este 37 Este 0 -- -- 78
2019-06-06 11:00:00 14.7 18 Este 37 Este 0 -- -- 73
2019-06-06 10:00:00 14.3 26 Este 39 Este 0 -- -- 69
2019-06-06 09:00:00 13.3 18 Este 40 Este 0 -- -- 76
2019-06-06 08:00:00 12.8 21 Este 38 Sudeste 0 -- -- 76
2019-06-06 07:00:00 12.5 21 Este 37 Sudeste 0 -- -- 76
2019-06-06 06:00:00 12.2 23 Este 37 Este 0 -- -- 80
2019-06-06 05:00:00 12.7 17 Este 33 Este 0 -- -- 83
2019-06-06 04:00:00 12.7 17 Este 32 Este 0 -- -- 80
2019-06-06 03:00:00 12.6 16 Este 35 Este 0 -- -- 81
2019-06-06 02:00:00 13 18 Este 34 Este 0 -- -- 79
2019-06-06 01:00:00 13.5 19 Este 40 Este 0 -- -- 75
2019-06-06 00:00:00 13.5 20 Este 40 Este 0 -- -- 73
2019-06-05 23:00:00 13.9 23 Este 42 Este 0 -- -- 76
2019-06-05 22:00:00 14.3 23 Este 43 Sudeste 0 -- -- 82
2019-06-05 21:00:00 14.3 24 Este 45 Este 0 -- -- 83
2019-06-05 20:00:00 14.7 24 Este 44 Este 0 -- -- 81
2019-06-05 19:00:00 15.3 20 Este 32 Este 0 -- -- 84
2019-06-05 18:00:00 15.5 18 Este 35 Este 0 -- -- 80
2019-06-05 17:00:00 15.6 19 Este 39 Este 0 -- -- 76
2019-06-05 16:00:00 15.8 23 Este 37 Este 0 -- -- 79
2019-06-05 15:00:00 15.7 23 Este 40 Este 0 -- -- 82
2019-06-05 14:00:00 15.8 22 Este 37 Este 0 -- -- 87
2019-06-05 13:00:00 17.1 19 Este 40 Sudeste 0 -- -- 79
2019-06-05 12:00:00 17.9 24 Este 37 Este 0 -- -- 74
2019-06-05 11:00:00 18.5 17 Este 33 Este 0 -- -- 72
2019-06-05 10:00:00 17.6 17 Este 28 Este 0 -- -- 76
2019-06-05 09:00:00 16.7 6 Oeste 12 Nordeste 0 -- -- 78
2019-06-05 08:00:00 13.1 4 Este 15 Este 0 -- -- 88
2019-06-05 07:00:00 12.8 3 Noroeste 9 Nordeste 0 -- -- 81
2019-06-05 06:00:00 14.1 5 Oeste 21 Este 0 -- -- 75
2019-06-05 05:00:00 15.1 13 Este 28 Nordeste 0 -- -- 77
2019-06-05 04:00:00 15 9 Este 27 Este 0 -- -- 77
2019-06-05 03:00:00 16.1 12 Este 26 Este 0 -- -- 70
2019-06-05 02:00:00 16.2 14 Este 28 Este 0 -- -- 73
2019-06-05 01:00:00 17 13 Este 24 Sudeste 0 -- -- 66
2019-06-05 00:00:00 16.8 5 Este 10 Este 0 -- -- 72
2019-06-04 23:00:00 18 3 Este 6 Este 0 -- -- 66
2019-06-04 22:00:00 19.9 2 Oeste 9 Oeste 0 -- -- 68
2019-06-04 21:00:00 21.9 3 Oeste 12 Oeste 0 -- -- 61
2019-06-04 20:00:00 23 8 Oeste 15 Oeste 0 -- -- 54
2019-06-04 19:00:00 23.5 8 Oeste 21 Oeste 0 -- -- 55
2019-06-04 18:00:00 24.3 10 Oeste 22 Oeste 0 -- -- 51
2019-06-04 17:00:00 24.7 12 Oeste 23 Noroeste 0 -- -- 48
2019-06-04 16:00:00 24.8 13 Oeste 24 Oeste 0 -- -- 52
2019-06-04 15:00:00 25.3 11 Oeste 24 Oeste 0 -- -- 49
2019-06-04 14:00:00 25.7 13 Noroeste 26 Oeste 0 -- -- 46
2019-06-04 13:00:00 26.1 11 Oeste 24 Noroeste 0 -- -- 45
2019-06-04 12:00:00 26.5 10 Oeste 19 Oeste 0 -- -- 38
2019-06-04 11:00:00 26.3 12 Oeste 18 Oeste 0 -- -- 37
2019-06-04 10:00:00 26.5 7 Oeste 11 Oeste 0 -- -- 27
2019-06-04 09:00:00 21.8 3 Este 10 Nordeste 0 -- -- 30
2019-06-04 08:00:00 17.6 4 Sudeste 9 Este 0 -- -- 34
2019-06-04 07:00:00 17.9 3 Sudeste 10 Nordeste 0 -- -- 34
2019-06-04 06:00:00 18.4 5 Este 9 Este 0 -- -- 31
2019-06-04 05:00:00 20.7 3 Nordeste 25 Este 0 -- -- 27
2019-06-04 04:00:00 22.5 14 Este 33 Este 0 -- -- 22
2019-06-04 03:00:00 22.3 18 Este 38 Este 0 -- -- 25
2019-06-04 02:00:00 22.5 18 Este 40 Este 0 -- -- 26
2019-06-04 01:00:00 22.5 19 Este 39 Este 0 -- -- 25
2019-06-04 00:00:00 22.8 20 Este 47 Este 0 -- -- 25
2019-06-03 23:00:00 23 26 Este 51 Este 0 -- -- 26
2019-06-03 22:00:00 23.6 21 Este 42 Este 0 -- -- 24
2019-06-03 21:00:00 24.4 18 Este 44 Sudeste 0 -- -- 27
2019-06-03 20:00:00 26.7 24 Este 42 Este 0 -- -- 25
2019-06-03 19:00:00 29 22 Este 43 Este 0 -- -- 19
2019-06-03 18:00:00 30.1 24 Este 42 Este 0 -- -- 19
2019-06-03 17:00:00 31.1 23 Este 50 Este 0 -- -- 18
2019-06-03 16:00:00 31.5 25 Este 48 Este 0 -- -- 16
2019-06-03 15:00:00 31.5 28 Este 47 Este 0 -- -- 16
2019-06-03 14:00:00 31.8 26 Este 51 Este 0 -- -- 14
2019-06-03 13:00:00 31.6 24 Este 45 Este 0 -- -- 14
2019-06-03 12:00:00 31.3 24 Este 46 Este 0 -- -- 15
2019-06-03 11:00:00 30.4 27 Este 46 Este 0 -- -- 14
2019-06-03 10:00:00 29.3 26 Este 44 Este 0 -- -- 13
2019-06-03 09:00:00 28 23 Este 47 Este 0 -- -- 13
2019-06-03 08:00:00 26 24 Este 46 Este 0 -- -- 12
2019-06-03 07:00:00 24.8 24 Este 47 Este 0 -- -- 14
2019-06-03 06:00:00 23.6 28 Este 51 Este 0 -- -- 18
2019-06-03 05:00:00 22.6 35 Este 58 Este 0 -- -- 23
2019-06-03 04:00:00 22.4 36 Este 65 Este 0 -- -- 23
2019-06-03 03:00:00 21.9 38 Este 64 Este 0 -- -- 26
2019-06-03 02:00:00 23.4 39 Este 71 Este 0 -- -- 24
2019-06-03 01:00:00 24.4 38 Este 66 Este 0 -- -- 21
2019-06-03 00:00:00 25.6 33 Este 57 Este 0 -- -- 16
2019-06-02 23:00:00 23 34 Este 54 Sudeste 0 -- -- 28
2019-06-02 22:00:00 24.9 31 Este 50 Este 0 -- -- 19
2019-06-02 21:00:00 26.4 29 Este 51 Este 0 -- -- 18
2019-06-02 20:00:00 27.7 25 Este 48 Este 0 -- -- 17
2019-06-02 19:00:00 28.9 23 Este 48 Este 0 -- -- 17
2019-06-02 18:00:00 29.8 26 Este 47 Este 0 -- -- 18
2019-06-02 17:00:00 30.6 27 Este 46 Este 0 -- -- 17
2019-06-02 16:00:00 30.6 26 Este 48 Este 0 -- -- 20
2019-06-02 15:00:00 31.3 23 Este 45 Sudeste 0 -- -- 17
2019-06-02 14:00:00 30.5 28 Este 44 Este 0 -- -- 14
2019-06-02 13:00:00 30 26 Este 42 Este 0 -- -- 18
2019-06-02 12:00:00 29.6 20 Este 37 Sudeste 0 -- -- 23
2019-06-02 11:00:00 29.3 20 Este 39 Este 0.2 -- -- 23
2019-06-02 10:00:00 28.3 19 Este 38 Este 0 -- -- 25
2019-06-02 09:00:00 26.2 24 Este 48 Este 0 -- -- 30
2019-06-02 08:00:00 24.1 33 Este 58 Este 0 -- -- 33
2019-06-02 07:00:00 25 20 Este 47 Este 0 -- -- 27
2019-06-02 06:00:00 24.6 18 Este 46 Este 0 -- -- 27
2019-06-02 05:00:00 24.5 18 Este 41 Este 0 -- -- 28
2019-06-02 04:00:00 24.4 18 Este 39 Este 0 -- -- 29
2019-06-02 03:00:00 24.4 23 Este 50 Este 0 -- -- 30
2019-06-02 02:00:00 24.6 30 Este 67 Sudeste 0 -- -- 30
2019-06-02 01:00:00 24.1 22 Este 41 Este 0 -- -- 33
2019-06-02 00:00:00 18.7 3 Norte 11 Norte 0 -- -- 58
2019-06-01 23:00:00 19.1 4 Este 9 Norte 0 -- -- 61
2019-06-01 22:00:00 19.4 2 Este 8 Oeste 0 -- -- 71
2019-06-01 21:00:00 20.4 3 Sudoeste 14 Oeste 0 -- -- 72
2019-06-01 20:00:00 21.4 10 Oeste 24 Sudoeste 0 -- -- 69
2019-06-01 19:00:00 22.7 12 Oeste 25 Oeste 0 -- -- 63
2019-06-01 18:00:00 23.7 10 Oeste 18 Oeste 0 -- -- 61
2019-06-01 17:00:00 23 13 Oeste 27 Oeste 0 -- -- 63
2019-06-01 16:00:00 24.6 20 Oeste 31 Sudeste 0 -- -- 57
2019-06-01 15:00:00 28.6 22 Este 39 Este 0 -- -- 28
2019-06-01 14:00:00 21.4 12 Oeste 26 Oeste 0 -- -- 69
2019-06-01 13:00:00 21.4 18 Oeste 24 Oeste 0 -- -- 67
2019-06-01 12:00:00 22.8 13 Oeste 24 Oeste 0 -- -- 61
2019-06-01 11:00:00 22.5 13 Oeste 24 Oeste 0 -- -- 60
2019-06-01 10:00:00 28.6 14 Este 36 Este 0 -- -- 25
2019-06-01 09:00:00 26.6 18 Este 44 Este 0 -- -- 28
2019-06-01 08:00:00 24.9 23 Este 37 Nordeste 0 -- -- 29
2019-06-01 07:00:00 24.9 17 Este 38 Este 0 -- -- 29
2019-06-01 06:00:00 22.5 21 Este 41 Este 0 -- -- 29
2019-06-01 05:00:00 21.8 28 Este 50 Este 0 -- -- 36
2019-06-01 04:00:00 21.9 25 Este 50 Sudeste 0 -- -- 32
2019-06-01 03:00:00 21 19 Este 59 Este 0 -- -- 30
2019-06-01 02:00:00 21.4 23 Este 38 Este 0 -- -- 25
2019-06-01 01:00:00 19.5 4 Norte 14 Este 0 -- -- 33
2019-06-01 00:00:00 19.8 6 Este 12 Sudeste 0 -- -- 31
2019-05-31 23:00:00 19.5 4 Este 12 Este 0 -- -- 39
2019-05-31 22:00:00 19.6 4 Este 8 Nordeste 0 -- -- 50
2019-05-31 21:00:00 21.2 3 Oeste 8 Noroeste 0 -- -- 67
2019-05-31 20:00:00 22.9 5 Oeste 15 Oeste 0 -- -- 64
2019-05-31 19:00:00 23.5 7 Oeste 15 Oeste 0 -- -- 60
2019-05-31 18:00:00 23 10 Oeste 19 Oeste 0 -- -- 62
2019-05-31 17:00:00 23.2 9 Oeste 25 Oeste 0 -- -- 60
2019-05-31 16:00:00 24.3 9 Oeste 19 Oeste 0 -- -- 56
2019-05-31 15:00:00 24.5 12 Oeste 20 Oeste 0 -- -- 53
2019-05-31 14:00:00 23.9 11 Oeste 18 Oeste 0 -- -- 55
2019-05-31 13:00:00 23 9 Oeste 18 Oeste 0 -- -- 54
2019-05-31 12:00:00 22.2 6 Oeste 16 Oeste 0 -- -- 58
2019-05-31 11:00:00 21.3 8 Oeste 17 Oeste 0 -- -- 60
2019-05-31 10:00:00 21.3 11 Oeste 15 Oeste 0 -- -- 57
2019-05-31 09:00:00 17.9 6 Oeste 10 Oeste 0 -- -- 59
2019-05-31 08:00:00 13.8 5 Este 11 Este 0 -- -- 37
2019-05-31 07:00:00 12.5 3 Este 8 Este 0 -- -- 41
2019-05-31 06:00:00 13.8 3 Este 14 Sudeste 0 -- -- 44
2019-05-31 05:00:00 12.3 3 Este 10 Este 0 -- -- 74
2019-05-31 04:00:00 14.1 4 Este 8 Nordeste 0 -- -- 43
2019-05-31 03:00:00 12.4 4 Este 10 Oeste 0 -- -- 58
2019-05-31 02:00:00 14.1 3 Noroeste 9 Oeste 0 -- -- 68
2019-05-31 01:00:00 13.8 5 Este 11 Este 0 -- -- 51
2019-05-31 00:00:00 13.7 3 Sudeste 9 Oeste 0 -- -- 64
2019-05-30 23:00:00 14.3 3 Este 9 Nordeste 0 -- -- 70
2019-05-30 22:00:00 15.7 2 Nordeste 14 Oeste 0 -- -- 85
2019-05-30 21:00:00 17.9 2 Oeste 12 Oeste 0 -- -- 75
2019-05-30 20:00:00 19.6 4 Oeste 16 Oeste 0 -- -- 71
2019-05-30 19:00:00 20.4 8 Oeste 21 Oeste 0 -- -- 67
2019-05-30 18:00:00 21.4 12 Oeste 22 Oeste 0 -- -- 63
2019-05-30 17:00:00 22.2 11 Oeste 20 Oeste 0 -- -- 61
2019-05-30 16:00:00 21.8 13 Oeste 23 Oeste 0 -- -- 61
2019-05-30 15:00:00 21.7 13 Oeste 22 Oeste 0 -- -- 61
2019-05-30 14:00:00 21.6 11 Noroeste 20 Oeste 0 -- -- 61
2019-05-30 13:00:00 21.1 11 Oeste 18 Oeste 0 -- -- 63
2019-05-30 12:00:00 20.9 9 Oeste 16 Oeste 0 -- -- 63
2019-05-30 11:00:00 19.7 7 Oeste 14 Oeste 0 -- -- 65
2019-05-30 10:00:00 18.5 7 Oeste 12 Oeste 0 -- -- 66
2019-05-30 09:00:00 14.7 2 Nordeste 6 Oeste 0 -- -- 78
2019-05-30 08:00:00 10.8 3 Sudeste 8 Este 0 -- -- 72
2019-05-30 07:00:00 10.3 4 Oeste 10 Este 0 -- -- 87
2019-05-30 06:00:00 10.6 4 Este 9 Nordeste 0 -- -- 88
2019-05-30 05:00:00 11 4 Noroeste 13 Este 0 -- -- 90
2019-05-30 04:00:00 11.6 3 Sudeste 13 Oeste 0 -- -- 95
2019-05-30 03:00:00 11.2 4 Este 8 Este 0 -- -- 95
2019-05-30 02:00:00 11.7 2 Este 6 Este 0 -- -- 94
2019-05-30 01:00:00 12.6 3 Este 6 Este 0 -- -- 90
2019-05-30 00:00:00 14.1 3 Nordeste 12 Oeste 0 -- -- 87
2019-05-29 23:00:00 15 3 Este 5 Este 0 -- -- 69
2019-05-29 22:00:00 15.4 3 Este 6 Oeste 0 -- -- 84
2019-05-29 21:00:00 17.6 5 Oeste 12 Oeste 0 -- -- 75
2019-05-29 20:00:00 19.4 7 Oeste 17 Oeste 0 -- -- 70
2019-05-29 19:00:00 20.8 9 Oeste 17 Noroeste 0 -- -- 64
2019-05-29 18:00:00 21.3 12 Oeste 22 Oeste 0 -- -- 61
2019-05-29 17:00:00 22.5 13 Oeste 22 Noroeste 0 -- -- 56
2019-05-29 16:00:00 22.5 12 Oeste 21 Oeste 0 -- -- 56
2019-05-29 15:00:00 21.7 13 Oeste 21 Oeste 0 -- -- 60
2019-05-29 14:00:00 20.6 13 Oeste 22 Oeste 0 -- -- 64
2019-05-29 13:00:00 20.4 10 Oeste 22 Oeste 0 -- -- 66
2019-05-29 12:00:00 20 12 Oeste 21 Oeste 0 -- -- 67
2019-05-29 11:00:00 20 11 Oeste 17 Oeste 0 -- -- 66
2019-05-29 10:00:00 20.1 6 Oeste 16 Oeste 0 -- -- 62
2019-05-29 09:00:00 19.4 8 Sur 15 Oeste 0 -- -- 54
2019-05-29 08:00:00 12.9 5 Este 9 Este 0 -- -- 46
2019-05-29 07:00:00 12 4 Este 8 Oeste 0 -- -- 54
2019-05-29 06:00:00 13.5 4 Este 8 Este 0 -- -- 47
2019-05-29 05:00:00 14 5 Este 8 Este 0 -- -- 45
2019-05-29 04:00:00 13.7 4 Este 9 Este 0 -- -- 49
2019-05-29 03:00:00 13.7 7 Este 11 Este 0 -- -- 48
2019-05-29 02:00:00 13.8 3 Este 15 Oeste 0 -- -- 83
2019-05-29 01:00:00 14.6 2 Noroeste 9 Este 0 -- -- 84
2019-05-29 00:00:00 15.4 8 Este 11 Este 0 -- -- 44
2019-05-28 23:00:00 16.9 2 Nordeste 6 Este 0 -- -- 41
2019-05-28 22:00:00 18.3 5 Este 10 Este 0 -- -- 41
2019-05-28 21:00:00 22 4 Oeste 10 Oeste 0 -- -- 58
2019-05-28 20:00:00 22.5 3 Noroeste 15 Oeste 0 -- -- 49
2019-05-28 19:00:00 23.8 9 Oeste 21 Noroeste 0 -- -- 50
2019-05-28 18:00:00 24.6 8 Oeste 22 Oeste 0 -- -- 44
2019-05-28 17:00:00 24.3 11 Oeste 24 Oeste 0 -- -- 45
2019-05-28 16:00:00 24.9 15 Oeste 23 Oeste 0 -- -- 45
2019-05-28 15:00:00 24.3 15 Oeste 26 Oeste 0 -- -- 41
2019-05-28 14:00:00 23.9 13 Oeste 24 Oeste 0 -- -- 52
2019-05-28 13:00:00 26.9 10 Sur 32 Este 0 -- -- 31
2019-05-28 12:00:00 26.3 9 Nordeste 40 Este 0 -- -- 30
2019-05-28 11:00:00 24.6 22 Este 38 Este 0 -- -- 29
2019-05-28 10:00:00 23.7 18 Este 35 Este 0 -- -- 32
2019-05-28 09:00:00 22.5 20 Este 40 Nordeste 0 -- -- 33
2019-05-28 08:00:00 20.7 19 Este 51 Este 0 -- -- 35
2019-05-28 07:00:00 20.4 17 Este 42 Este 0 -- -- 36
2019-05-28 06:00:00 20.6 22 Este 47 Este 0 -- -- 36
2019-05-28 05:00:00 20.9 20 Este 45 Sudeste 0 -- -- 35
2019-05-28 04:00:00 21 23 Este 48 Este 0 -- -- 33
2019-05-28 03:00:00 21.2 17 Este 40 Nordeste 0 -- -- 36
2019-05-28 02:00:00 21.1 12 Este 45 Sudeste 0 -- -- 37
2019-05-28 01:00:00 21.3 17 Este 44 Este 0 -- -- 37
2019-05-28 00:00:00 21.3 9 Este 50 Nordeste 0 -- -- 37
2019-05-27 23:00:00 21.3 20 Este 49 Nordeste 0 -- -- 37
2019-05-27 22:00:00 21 12 Nordeste 39 Este 0 -- -- 37
2019-05-27 21:00:00 21.1 10 Nordeste 37 Este 0 -- -- 34
2019-05-27 20:00:00 21.9 14 Sudeste 39 Este 0 -- -- 34
2019-05-27 19:00:00 22.7 9 Nordeste 44 Este 0 -- -- 40
2019-05-27 18:00:00 22.8 23 Sudeste 44 Sudeste 0 -- -- 37
2019-05-27 17:00:00 23.1 27 Este 48 Este 0 -- -- 35
2019-05-27 16:00:00 23.7 26 Sudeste 49 Sudeste 0 -- -- 36
2019-05-27 15:00:00 24.5 22 Este 46 Sudeste 0 -- -- 31
2019-05-27 14:00:00 24.5 22 Este 46 Este 0 -- -- 31
2019-05-27 13:00:00 23.4 29 Este 49 Este 0 -- -- 32
2019-05-27 12:00:00 23.2 23 Este 46 Este 0 -- -- 32
2019-05-27 11:00:00 22.8 21 Este 45 Este 0 -- -- 33
2019-05-27 10:00:00 21.8 19 Este 45 Este 0 -- -- 35
2019-05-27 09:00:00 20.5 23 Este 48 Nordeste 0 -- -- 37
2019-05-27 08:00:00 18.6 22 Este 51 Este 0 -- -- 38
2019-05-27 07:00:00 18.6 22 Este 50 Este 0 -- -- 39
2019-05-27 06:00:00 18.7 18 Este 46 Este 0 -- -- 38
2019-05-27 05:00:00 18.9 18 Este 45 Este 0 -- -- 37
2019-05-27 04:00:00 19.1 20 Este 49 Este 0 -- -- 37
2019-05-27 03:00:00 19.5 24 Este 51 Sudeste 0 -- -- 36
2019-05-27 02:00:00 19.1 23 Este 44 Este 0 -- -- 33
2019-05-27 01:00:00 19.6 19 Este 55 Este 0 -- -- 39
2019-05-27 00:00:00 19.4 26 Este 48 Este 0 -- -- 39
2019-05-26 23:00:00 19.2 18 Este 44 Este 0 -- -- 35
2019-05-26 22:00:00 16.1 8 Nordeste 19 Este 0 -- -- 60
2019-05-26 21:00:00 17.6 4 Noroeste 14 Oeste 0 -- -- 76
2019-05-26 20:00:00 19.1 6 Oeste 17 Oeste 0 -- -- 72
2019-05-26 19:00:00 19.4 11 Oeste 21 Oeste 0 -- -- 71
2019-05-26 18:00:00 20.2 12 Oeste 24 Oeste 0 -- -- 68
2019-05-26 17:00:00 20.8 12 Oeste 27 Noroeste 0 -- -- 65
2019-05-26 16:00:00 21.3 10 Oeste 24 Oeste 0 -- -- 63
2019-05-26 15:00:00 20.8 9 Oeste 24 Oeste 0 -- -- 63
2019-05-26 14:00:00 21.1 14 Oeste 24 Oeste 0 -- -- 61
2019-05-26 13:00:00 21.5 11 Oeste 23 Oeste 0 -- -- 61
2019-05-26 12:00:00 21.1 10 Noroeste 41 Sudoeste 0 -- -- 61
2019-05-26 11:00:00 20.5 16 Este 42 Sudeste 0 -- -- 58
2019-05-26 10:00:00 19.8 13 Este 41 Este 0 -- -- 42
2019-05-26 09:00:00 17.8 9 Norte 22 Oeste 0 -- -- 62
2019-05-26 08:00:00 17 12 Noroeste 50 Este 0 -- -- 61
2019-05-26 07:00:00 18 30 Este 59 Este 0 -- -- 41
2019-05-26 06:00:00 16.1 19 Este 38 Este 0 -- -- 49
2019-05-26 05:00:00 14.3 11 Sudeste 42 Sudeste 0 -- -- 53
2019-05-26 04:00:00 12 8 Nordeste 21 Este 0 -- -- 77
2019-05-26 03:00:00 13 3 Noroeste 24 Oeste 0 -- -- 91
2019-05-26 02:00:00 12.9 2 Nordeste 11 Oeste 0 -- -- 86
2019-05-26 01:00:00 13.4 0 Calma 9 Noroeste 0 -- -- 87
2019-05-26 00:00:00 14.6 7 Oeste 11 Oeste 0 -- -- 87
2019-05-25 23:00:00 15.2 3 Oeste 8 Oeste 0 -- -- 86
2019-05-25 22:00:00 16.1 3 Oeste 9 Oeste 0 -- -- 82
2019-05-25 21:00:00 17.7 9 Oeste 20 Norte 0 -- -- 76
2019-05-25 20:00:00 20 9 Oeste 27 Este 0 -- -- 49
2019-05-25 19:00:00 19.9 9 Oeste 26 Oeste 0 -- -- 70
2019-05-25 18:00:00 20.9 10 Oeste 26 Oeste 0 -- -- 67
2019-05-25 17:00:00 22.7 10 Oeste 24 Oeste 0 -- -- 64
2019-05-25 16:00:00 25 14 Sudeste 34 Sudeste 0 -- -- 48
2019-05-25 15:00:00 22 10 Oeste 25 Oeste 0 -- -- 64
2019-05-25 14:00:00 23.8 14 Sur 51 Sudeste 0 -- -- 56
2019-05-25 13:00:00 24.7 10 Norte 42 Este 0 -- -- 49
2019-05-25 12:00:00 22.2 26 Este 46 Este 0 -- -- 54
2019-05-25 11:00:00 21.9 10 Oeste 32 Este 0 -- -- 58
2019-05-25 10:00:00 23.2 18 Este 34 Este 0 -- -- 38
2019-05-25 09:00:00 21.1 15 Este 28 Este 0 -- -- 40
2019-05-25 08:00:00 19 14 Este 27 Este 0 -- -- 35
2019-05-25 07:00:00 18.6 6 Este 41 Este 0 -- -- 33
2019-05-25 06:00:00 20.7 22 Este 42 Este 0 -- -- 31
2019-05-25 05:00:00 19.9 22 Este 40 Nordeste 0 -- -- 31
2019-05-25 04:00:00 20.4 14 Este 34 Este 0 -- -- 26
2019-05-25 03:00:00 20.8 15 Este 42 Este 0 -- -- 23
2019-05-25 02:00:00 20.6 24 Este 52 Este 0 -- -- 22
2019-05-25 01:00:00 20.7 25 Este 48 Este 0 -- -- 27
2019-05-25 00:00:00 20.7 18 Este 41 Nordeste 0 -- -- 31
2019-05-24 23:00:00 20.5 22 Este 48 Este 0 -- -- 36
2019-05-24 22:00:00 20.3 25 Este 50 Este 0 -- -- 38
2019-05-24 21:00:00 21 26 Este 60 Este 0 -- -- 34
2019-05-24 20:00:00 22.4 27 Este 47 Este 0 -- -- 29
2019-05-24 19:00:00 23.3 9 Noroeste 47 Este 0 -- -- 50
2019-05-24 18:00:00 23.5 14 Oeste 43 Este 0 -- -- 33
2019-05-24 17:00:00 25.3 17 Este 45 Este 0 -- -- 30
2019-05-24 16:00:00 23.7 14 Oeste 29 Noroeste 0 -- -- 53
2019-05-24 15:00:00 23.6 14 Oeste 26 Noroeste 0 -- -- 56
2019-05-24 14:00:00 23.3 16 Noroeste 28 Oeste 0 -- -- 53
2019-05-24 13:00:00 23.2 15 Oeste 39 Este 0 -- -- 55
2019-05-24 12:00:00 23.8 18 Este 46 Sudeste 0 -- -- 44
2019-05-24 11:00:00 22.5 24 Este 56 Este 0 -- -- 44
2019-05-24 10:00:00 22.5 32 Este 52 Este 0 -- -- 27
2019-05-24 09:00:00 21.2 30 Este 50 Este 0 -- -- 15
2019-05-24 08:00:00 21 28 Este 51 Este 0 -- -- 13
2019-05-24 07:00:00 21.2 29 Este 51 Este 0 -- -- 10
2019-05-24 06:00:00 21.6 27 Este 50 Este 0 -- -- 8
2019-05-24 05:00:00 21.6 32 Este 59 Este 0 -- -- 7
2019-05-24 04:00:00 21.2 33 Este 61 Este 0 -- -- 8
2019-05-24 03:00:00 19.2 29 Este 48 Este 0 -- -- 17
2019-05-24 02:00:00 19.1 19 Este 55 Este 0 -- -- 45
2019-05-24 01:00:00 17.9 33 Este 57 Este 0 -- -- 28
2019-05-24 00:00:00 18.2 32 Este 66 Este 0 -- -- 29
2019-05-23 23:00:00 14 7 Noroeste 22 Este 0 -- -- 87
2019-05-23 22:00:00 15 6 Este 15 Norte 0 -- -- 61
2019-05-23 21:00:00 16.6 8 Oeste 33 Sudeste 0 -- -- 77
2019-05-23 20:00:00 16.8 29 Este 49 Este 0 -- -- 63
2019-05-23 19:00:00 17.5 27 Este 52 Este 0 -- -- 63
2019-05-23 18:00:00 17.7 30 Sudeste 53 Este 0 -- -- 64
2019-05-23 17:00:00 18.6 24 Este 73 Este 0 -- -- 67
2019-05-23 16:00:00 19.1 34 Este 59 Este 0 -- -- 67
2019-05-23 15:00:00 17.6 39 Este 62 Sudeste 0 -- -- 70
2019-05-23 14:00:00 18 35 Este 60 Este 0 -- -- 70
2019-05-23 13:00:00 17.3 35 Este 60 Este 0 -- -- 69
2019-05-23 12:00:00 17.3 31 Este 62 Este 0 -- -- 72
2019-05-23 11:00:00 16.3 31 Este 57 Este 0 -- -- 69
2019-05-23 10:00:00 15.3 26 Este 57 Este 0 -- -- 75
2019-05-23 09:00:00 14.4 31 Este 61 Este 0 -- -- 73
2019-05-23 08:00:00 13.3 32 Este 63 Sudeste 0 -- -- 78
2019-05-23 07:00:00 14 27 Este 63 Sudeste 0 -- -- 71
2019-05-23 06:00:00 14.2 15 Nordeste 56 Este 0 -- -- 63
2019-05-23 05:00:00 13.6 24 Este 62 Este 0 -- -- 80
2019-05-23 04:00:00 13.6 29 Este 56 Este 0 -- -- 81
2019-05-23 03:00:00 13.4 33 Este 61 Este 0 -- -- 80
2019-05-23 02:00:00 13.6 33 Este 64 Este 0 -- -- 79
2019-05-23 01:00:00 13.6 39 Este 63 Sudeste 0 -- -- 81
2019-05-23 00:00:00 14 28 Este 49 Este 0 -- -- 75
2019-05-22 23:00:00 14.9 19 Este 45 Este 0 -- -- 69
2019-05-22 22:00:00 14.6 9 Este 21 Sudeste 0 -- -- 67
2019-05-22 21:00:00 16 5 Oeste 17 Oeste 0 -- -- 80
2019-05-22 20:00:00 17 9 Oeste 20 Oeste 0 -- -- 77
2019-05-22 19:00:00 18.6 15 Oeste 23 Oeste 0 -- -- 71
2019-05-22 18:00:00 19.7 16 Oeste 26 Oeste 0 -- -- 67
2019-05-22 17:00:00 19.8 14 Oeste 26 Oeste 0 -- -- 66
2019-05-22 16:00:00 19.3 16 Sudeste 36 Este 0 -- -- 65
2019-05-22 15:00:00 19.1 18 Sudeste 31 Este 0 -- -- 66
2019-05-22 14:00:00 18.2 19 Sudeste 41 Sudeste 0 -- -- 68
2019-05-22 13:00:00 18.3 19 Este 44 Este 0 -- -- 69
2019-05-22 12:00:00 16.2 21 Este 40 Sudeste 0 -- -- 79
2019-05-22 11:00:00 15.5 21 Este 38 Este 0 -- -- 83
2019-05-22 10:00:00 17.3 7 Norte 31 Este 0 -- -- 69
2019-05-22 09:00:00 13.9 7 Norte 32 Nordeste 0 -- -- 82
2019-05-22 08:00:00 11.3 6 Nordeste 26 Este 0 -- -- 87
2019-05-22 07:00:00 12.1 13 Nordeste 32 Este 0 -- -- 82
2019-05-22 06:00:00 12.2 13 Este 34 Este 0 -- -- 84
2019-05-22 05:00:00 11.2 6 Sudeste 17 Este 0 -- -- 90
2019-05-22 04:00:00 12.3 11 Este 27 Este 0 -- -- 86
2019-05-22 03:00:00 12.8 8 Este 37 Este 0 -- -- 84
2019-05-22 02:00:00 13 18 Este 37 Este 0 -- -- 83
2019-05-22 01:00:00 13.2 19 Este 41 Este 0 -- -- 85
2019-05-22 00:00:00 13.6 19 Este 35 Este 0 -- -- 85
2019-05-21 23:00:00 13.6 8 Este 35 Sudeste 0 -- -- 80
2019-05-21 22:00:00 13.8 19 Este 30 Este 0 -- -- 82
2019-05-21 21:00:00 15.5 7 Oeste 13 Oeste 0 -- -- 81
2019-05-21 20:00:00 16 4 Oeste 30 Sudoeste 0 -- -- 77
2019-05-21 19:00:00 17 8 Noroeste 26 Noroeste 0 -- -- 75
2019-05-21 18:00:00 18.5 13 Oeste 23 Oeste 0 -- -- 69
2019-05-21 17:00:00 18.1 13 Sudeste 26 Este 0 -- -- 68
2019-05-21 16:00:00 18.2 11 Oeste 38 Oeste 0 -- -- 73
2019-05-21 15:00:00 17.8 17 Sudeste 40 Sudeste 0 -- -- 68
2019-05-21 14:00:00 18.4 12 Este 39 Este 0 -- -- 70
2019-05-21 13:00:00 16.8 21 Este 37 Este 0 -- -- 75
2019-05-21 12:00:00 14.9 19 Sudeste 34 Este 0 -- -- 84
2019-05-21 11:00:00 16.1 17 Este 35 Sudeste 0 -- -- 76
2019-05-21 10:00:00 14.3 14 Este 33 Este 0 -- -- 83
2019-05-21 09:00:00 13.8 5 Oeste 28 Este 0 -- -- 80
2019-05-21 08:00:00 12 9 Este 30 Este 0 -- -- 89
2019-05-21 07:00:00 9.9 5 Nordeste 8 Este 0 -- -- 93
2019-05-21 06:00:00 9.5 3 Este 8 Este 0 -- -- 91
2019-05-21 05:00:00 9.7 3 Sudeste 8 Este 0 -- -- 88
2019-05-21 04:00:00 10.1 4 Este 8 Este 0 -- -- 86
2019-05-21 03:00:00 11 4 Este 9 Este 0 -- -- 86
2019-05-21 02:00:00 11.3 0 Calma 34 Sudeste 0 -- -- 87
2019-05-21 01:00:00 12.2 12 Este 30 Este 0 -- -- 87
2019-05-21 00:00:00 13 16 Este 35 Sudeste 0 -- -- 87
2019-05-20 23:00:00 13.1 10 Este 22 Este 0 -- -- 79
2019-05-20 22:00:00 13.3 12 Este 24 Sudeste 0 -- -- 78
2019-05-20 21:00:00 13.6 13 Este 31 Este 0 -- -- 82
2019-05-20 20:00:00 15.2 13 Sudeste 24 Este 0 -- -- 78
2019-05-20 19:00:00 15.9 12 Sudeste 26 Este 0 -- -- 72
2019-05-20 18:00:00 17.2 6 Sur 19 Oeste 0 -- -- 75
2019-05-20 17:00:00 17.2 6 Sudoeste 31 Sudeste 0 -- -- 74
2019-05-20 16:00:00 16.8 17 Sudeste 33 Este 0 -- -- 70
2019-05-20 15:00:00 17.7 19 Este 34 Este 0 -- -- 70
2019-05-20 14:00:00 17.8 23 Este 45 Sudeste 0 -- -- 67
2019-05-20 13:00:00 17.6 26 Este 51 Este 0 -- -- 68
2019-05-20 12:00:00 16.8 27 Este 44 Este 0 -- -- 64
2019-05-20 11:00:00 16.4 24 Este 43 Este 0 -- -- 65
2019-05-20 10:00:00 15.2 14 Este 26 Este 0 -- -- 71
2019-05-20 09:00:00 13.1 5 Este 23 Este 0 -- -- 78
2019-05-20 08:00:00 10.7 8 Este 25 Este 0 -- -- 85
2019-05-20 07:00:00 10.4 5 Este 18 Este 0 -- -- 87
2019-05-20 06:00:00 11.3 5 Este 36 Este 0 -- -- 85
2019-05-20 05:00:00 11.5 12 Este 27 Este 0 -- -- 84
2019-05-20 04:00:00 11.8 4 Nordeste 27 Este 0 -- -- 86
2019-05-20 03:00:00 12 10 Este 26 Este 0 -- -- 84
2019-05-20 02:00:00 11.9 4 Este 6 Nordeste 0 -- -- 88
2019-05-20 01:00:00 13.4 2 Norte 7 Oeste 0 -- -- 87
2019-05-20 00:00:00 14.1 5 Oeste 10 Oeste 0 -- -- 87
2019-05-19 23:00:00 14.5 4 Noroeste 25 Este 0 -- -- 86
2019-05-19 22:00:00 15 3 Oeste 11 Nordeste 0 -- -- 84
2019-05-19 21:00:00 16.2 4 Oeste 15 Oeste 0 -- -- 81
2019-05-19 20:00:00 17.7 8 Oeste 28 Este 0 -- -- 76
2019-05-19 19:00:00 17.4 21 Este 39 Este 0 -- -- 67
2019-05-19 18:00:00 17.2 21 Este 44 Este 0 -- -- 73
2019-05-19 17:00:00 16.7 27 Este 53 Este 0 -- -- 76
2019-05-19 16:00:00 17.6 32 Este 50 Este 0 -- -- 70
2019-05-19 15:00:00 18.3 30 Este 51 Este 0 -- -- 68
2019-05-19 14:00:00 21.9 10 Noroeste 40 Sudeste 0 -- -- 59
2019-05-19 13:00:00 19.4 27 Sudeste 44 Este 0 -- -- 61
2019-05-19 12:00:00 18.4 19 Sudeste 41 Sudeste 0 -- -- 64
2019-05-19 11:00:00 20.3 9 Noroeste 29 Este 0 -- -- 62
2019-05-19 10:00:00 18.1 5 Oeste 15 Oeste 0 -- -- 58
2019-05-19 09:00:00 16.2 0 Calma 14 Sudeste 0 -- -- 51
2019-05-19 08:00:00 11.3 0 Calma 12 Este 0 -- -- 67
2019-05-19 07:00:00 11.4 3 Noroeste 10 Este 0 -- -- 90
2019-05-19 06:00:00 11.6 8 Este 16 Este 0 -- -- 62
2019-05-19 05:00:00 10.4 4 Este 24 Este 0 -- -- 73
2019-05-19 04:00:00 11.1 0 Calma 10 Noroeste 0 -- -- 76
2019-05-19 03:00:00 12.3 0 Calma 29 Sur 0 -- -- 77
2019-05-19 02:00:00 14 20 Sudeste 39 Sudeste 0 -- -- 65
2019-05-19 01:00:00 14.1 27 Sudeste 46 Sudeste 0 -- -- 58
2019-05-19 00:00:00 12.8 18 Este 39 Este 0 -- -- 80
2019-05-18 23:00:00 13.7 12 Este 28 Sudeste 0 -- -- 72
2019-05-18 22:00:00 14.6 3 Noroeste 13 Oeste 0 -- -- 85
2019-05-18 21:00:00 15.7 7 Oeste 17 Oeste 0 -- -- 82
2019-05-18 20:00:00 16.8 8 Oeste 16 Oeste 0 -- -- 79
2019-05-18 19:00:00 17.9 12 Oeste 30 Sudeste 0 -- -- 75
2019-05-18 18:00:00 18.5 12 Oeste 37 Sudoeste 0 -- -- 71
2019-05-18 17:00:00 18.4 22 Este 45 Este 0 -- -- 68
2019-05-18 16:00:00 18.1 24 Este 50 Este 0 -- -- 69
2019-05-18 15:00:00 18 31 Este 53 Este 0 -- -- 68
2019-05-18 14:00:00 16.8 31 Este 52 Sudeste 0 -- -- 74
2019-05-18 13:00:00 16.8 31 Este 51 Este 0 -- -- 74
2019-05-18 12:00:00 16.2 31 Este 53 Sudeste 0 -- -- 74
2019-05-18 11:00:00 17.1 24 Este 45 Este 0 -- -- 71
2019-05-18 10:00:00 16.5 15 Este 38 Este 0 -- -- 73
2019-05-18 09:00:00 14.3 12 Este 41 Este 0 -- -- 82
2019-05-18 08:00:00 12.5 21 Este 45 Este 0 -- -- 88
2019-05-18 07:00:00 12.2 20 Sudeste 36 Sudeste 0 -- -- 87
2019-05-18 06:00:00 12.2 11 Sudeste 42 Este 0 -- -- 85
2019-05-18 05:00:00 12.7 21 Este 37 Este 0 -- -- 82
2019-05-18 04:00:00 12.8 3 Sur 17 Oeste 0 -- -- 89
2019-05-18 03:00:00 12.7 3 Sudeste 30 Este 0 -- -- 77
2019-05-18 02:00:00 13.4 20 Este 30 Sudeste 0 -- -- 86
2019-05-18 01:00:00 13.2 15 Este 30 Este 0 -- -- 88
2019-05-18 00:00:00 13.4 19 Este 33 Sudeste 0 -- -- 89
2019-05-17 23:00:00 13.8 20 Este 41 Este 0 -- -- 88
2019-05-17 22:00:00 14 22 Este 36 Este 0 -- -- 89
2019-05-17 21:00:00 15 18 Este 30 Este 0 -- -- 82
2019-05-17 20:00:00 17.9 4 Sur 18 Este 0 -- -- 73
2019-05-17 19:00:00 19.5 10 Oeste 19 Oeste 0 -- -- 73
2019-05-17 18:00:00 20.1 9 Oeste 36 Sudeste 0 -- -- 70
2019-05-17 17:00:00 18.7 22 Sudeste 37 Sudeste 0 -- -- 70
2019-05-17 16:00:00 20.4 26 Este 40 Este 0 -- -- 63
2019-05-17 15:00:00 20.2 23 Sudeste 43 Sudeste 0 -- -- 64
2019-05-17 14:00:00 20.9 18 Sudeste 38 Sudeste 0 -- -- 60
2019-05-17 13:00:00 20.8 20 Sudeste 35 Este 0 -- -- 61
2019-05-17 12:00:00 21.2 14 Oeste 35 Este 0 -- -- 61
2019-05-17 11:00:00 21.3 21 Este 40 Este 0 -- -- 50
2019-05-17 10:00:00 21.8 10 Sudeste 26 Sudeste 0 -- -- 39
2019-05-17 09:00:00 17.1 11 Sudeste 19 Sudeste 0 -- -- 48
2019-05-17 08:00:00 11.7 10 Sudoeste 17 Sur 0 -- -- 83
2019-05-17 07:00:00 11.1 5 Este 16 Oeste 0 -- -- 85
2019-05-17 06:00:00 11.6 4 Oeste 15 Oeste 0 -- -- 92
2019-05-17 05:00:00 12.9 8 Oeste 22 Sudeste 0 -- -- 87
2019-05-17 04:00:00 12.7 5 Este 20 Sudeste 0 -- -- 87
2019-05-17 03:00:00 16.7 6 Oeste 30 Sudeste 0 -- -- 60
2019-05-17 02:00:00 15.7 16 Sudeste 31 Sudeste 0 -- -- 40
2019-05-17 01:00:00 14.3 2 Nordeste 15 Sudeste 0 -- -- 46
2019-05-17 00:00:00 13.8 3 Este 10 Este 0 -- -- 48